Time;durP1;ratioP1;P1;durP2;ratioP2;P2;SDS_P1;SDS_P2;PMS_P1;PMS_P2;Temp;Humidity;BMP_temperature;BMP_pressure;BME280_temperature;BME280_humidity;BME280_pressure;Samples;Min_cycle;Max_cycle;Signal;HPM_P1;HPM_P2
2023/10/18 00:02:18;;;;;;;12.45;7.63;;;;;;;;;;4963456;28;20581;-76
2023/10/18 00:04:44;;;;;;;14.90;8.48;;;;;;;;;;4959979;28;20039;-76
2023/10/18 00:07:12;;;;;;;14.25;8.25;;;;;;;;;;4961902;28;20035;-77
2023/10/18 00:09:49;;;;;;;16.33;8.27;;;;;;;;;;4955420;28;20038;-77
2023/10/18 00:12:20;;;;;;;14.68;8.90;;;;;;;;;;4956925;28;20039;-77
2023/10/18 00:14:46;;;;;;;13.18;8.88;;;;;;;;;;4957403;28;20071;-77
2023/10/18 00:17:12;;;;;;;15.45;8.95;;;;;;;;;;4956280;28;20638;-77
2023/10/18 00:19:40;;;;;;;13.00;7.97;;;;;;;;;;4972769;28;20110;-77
2023/10/18 00:22:23;;;;;;;12.90;7.72;;;;;;;;;;4947958;28;20043;-77
2023/10/18 00:24:49;;;;;;;13.68;7.88;;;;;;;;;;4957255;28;20047;-77
2023/10/18 00:27:14;;;;;;;11.88;8.15;;;;;;;;;;4963710;28;20376;-77
2023/10/18 00:29:40;;;;;;;14.50;8.65;;;;;;;;;;4947131;28;20034;-77
2023/10/18 00:32:05;;;;;;;13.90;8.65;;;;;;;;;;4956993;28;20049;-77
2023/10/18 00:34:32;;;;;;;13.43;8.00;;;;;;;;;;4956150;28;20031;-77
2023/10/18 00:36:58;;;;;;;12.70;8.27;;;;;;;;;;4947014;28;20030;-77
2023/10/18 00:39:32;;;;;;;12.07;7.85;;;;;;;;;;4939761;28;20326;-77
2023/10/18 00:44:42;;;;;;;10.52;7.57;;;;;;;;;;4958049;28;20037;-77
2023/10/18 00:47:10;;;;;;;13.35;8.13;;;;;;;;;;4955732;28;20043;-76
2023/10/18 00:49:36;;;;;;;13.75;8.15;;;;;;;;;;4955798;28;20039;-76
2023/10/18 00:52:01;;;;;;;14.05;8.70;;;;;;;;;;4939653;28;20070;-76
2023/10/18 00:54:27;;;;;;;13.75;8.13;;;;;;;;;;4955962;28;20062;-77
2023/10/18 00:56:53;;;;;;;11.70;7.28;;;;;;;;;;4960744;28;20039;-77
2023/10/18 00:59:21;;;;;;;16.80;8.23;;;;;;;;;;4957475;28;20039;-77
2023/10/18 01:02:00;;;;;;;11.02;7.68;;;;;;;;;;4962462;28;20042;-76
2023/10/18 01:04:29;;;;;;;14.10;8.15;;;;;;;;;;4957113;28;20117;-78
2023/10/18 01:07:11;;;;;;;11.60;7.80;;;;;;;;;;4947072;28;20027;-78
2023/10/18 01:09:37;;;;;;;11.52;7.78;;;;;;;;;;4968114;28;20058;-76
2023/10/18 01:12:04;;;;;;;12.77;8.70;;;;;;;;;;4955308;28;20042;-76
2023/10/18 01:14:31;;;;;;;11.70;7.72;;;;;;;;;;4971481;28;20042;-77
2023/10/18 01:16:56;;;;;;;13.73;8.80;;;;;;;;;;4937421;28;20038;-77
2023/10/18 01:19:22;;;;;;;13.13;7.60;;;;;;;;;;4939062;28;20123;-77
2023/10/18 01:21:51;;;;;;;13.02;8.18;;;;;;;;;;4954604;28;20042;-79
2023/10/18 01:24:17;;;;;;;12.77;8.10;;;;;;;;;;4957707;28;20066;-77
2023/10/18 01:26:44;;;;;;;12.70;7.78;;;;;;;;;;4956550;28;20035;-77
2023/10/18 01:29:10;;;;;;;13.57;8.38;;;;;;;;;;4938969;28;20034;-77
2023/10/18 01:31:45;;;;;;;13.43;8.27;;;;;;;;;;4961437;28;20043;-77
2023/10/18 01:34:11;;;;;;;12.80;8.30;;;;;;;;;;4940996;28;20122;-77
2023/10/18 01:36:40;;;;;;;14.07;8.65;;;;;;;;;;4955539;28;20514;-78
2023/10/18 01:39:20;;;;;;;14.18;7.40;;;;;;;;;;4955046;28;20141;-77
2023/10/18 01:41:55;;;;;;;12.20;7.85;;;;;;;;;;4941657;28;20054;-76
2023/10/18 01:44:31;;;;;;;12.52;7.97;;;;;;;;;;4956873;28;20035;-76
2023/10/18 01:47:02;;;;;;;13.18;8.07;;;;;;;;;;4956092;28;20038;-76
2023/10/18 01:49:28;;;;;;;11.77;8.50;;;;;;;;;;4976945;28;20602;-76
2023/10/18 01:51:57;;;;;;;11.73;7.97;;;;;;;;;;4955944;28;20150;-77
2023/10/18 01:54:25;;;;;;;11.88;7.72;;;;;;;;;;4954716;28;20138;-77
2023/10/18 01:56:53;;;;;;;12.20;8.50;;;;;;;;;;4957012;28;20058;-76
2023/10/18 01:59:18;;;;;;;12.60;7.43;;;;;;;;;;4955689;28;20050;-76
2023/10/18 02:01:53;;;;;;;13.10;7.63;;;;;;;;;;4928794;28;20035;-77
2023/10/18 02:04:30;;;;;;;12.25;7.55;;;;;;;;;;4961506;28;20530;-76
2023/10/18 02:07:02;;;;;;;13.27;8.03;;;;;;;;;;4961032;28;20101;-77
2023/10/18 02:09:48;;;;;;;10.32;7.05;;;;;;;;;;4959431;28;20671;-77
2023/10/18 02:12:20;;;;;;;10.03;7.13;;;;;;;;;;4944125;28;20373;-76
2023/10/18 02:14:46;;;;;;;12.27;7.80;;;;;;;;;;4960402;28;20047;-76
2023/10/18 02:17:12;;;;;;;11.68;6.90;;;;;;;;;;4950378;28;20453;-76
2023/10/18 02:19:38;;;;;;;11.85;7.63;;;;;;;;;;4942342;28;20031;-77
2023/10/18 02:22:07;;;;;;;11.75;7.18;;;;;;;;;;4964410;28;20035;-77
2023/10/18 02:24:34;;;;;;;10.50;6.82;;;;;;;;;;4960834;28;20037;-76
2023/10/18 02:27:00;;;;;;;13.93;7.47;;;;;;;;;;4958238;28;20102;-76
2023/10/18 02:29:27;;;;;;;12.57;7.50;;;;;;;;;;4976217;28;20046;-76
2023/10/18 02:31:57;;;;;;;11.73;7.22;;;;;;;;;;4964136;28;20035;-76
2023/10/18 02:34:25;;;;;;;11.80;6.90;;;;;;;;;;4964556;28;20502;-77
2023/10/18 02:36:52;;;;;;;14.10;7.80;;;;;;;;;;4963670;28;20142;-77
2023/10/18 02:39:27;;;;;;;12.17;7.67;;;;;;;;;;4959335;28;20522;-77
2023/10/18 02:41:56;;;;;;;11.20;6.97;;;;;;;;;;4959155;28;20274;-77
2023/10/18 02:44:22;;;;;;;10.18;7.30;;;;;;;;;;4973147;28;20159;-77
2023/10/18 02:46:49;;;;;;;10.50;6.68;;;;;;;;;;4964329;28;20042;-77
2023/10/18 02:49:17;;;;;;;10.85;6.93;;;;;;;;;;4940563;28;20041;-76
2023/10/18 02:51:43;;;;;;;13.45;8.02;;;;;;;;;;4963859;28;20042;-77
2023/10/18 02:56:50;;;;;;;14.63;7.97;;;;;;;;;;4958932;28;20588;-77
2023/10/18 02:59:24;;;;;;;13.70;8.15;;;;;;;;;;4964424;28;20035;-77
2023/10/18 03:01:53;;;;;;;13.65;7.80;;;;;;;;;;4941030;28;20067;-77
2023/10/18 03:04:22;;;;;;;15.57;8.73;;;;;;;;;;4942590;28;20054;-77
2023/10/18 03:06:50;;;;;;;12.18;7.80;;;;;;;;;;4958240;28;20854;-77
2023/10/18 03:09:27;;;;;;;;;;;;;;;;;;4950203;28;20046;-77
2023/10/18 03:11:54;;;;;;;14.68;7.93;;;;;;;;;;4971110;28;20293;-77
2023/10/18 03:14:48;;;;;;;13.57;8.00;;;;;;;;;;4958262;28;20039;-77
2023/10/18 03:17:24;;;;;;;12.27;7.82;;;;;;;;;;4962822;28;20112;-77
2023/10/18 03:19:50;;;;;;;12.23;7.82;;;;;;;;;;4943190;28;20124;-77
2023/10/18 03:22:21;;;;;;;14.23;8.05;;;;;;;;;;4957501;28;20035;-76
2023/10/18 03:24:48;;;;;;;12.70;7.53;;;;;;;;;;4957627;28;20070;-77
2023/10/18 03:27:14;;;;;;;14.73;8.27;;;;;;;;;;4957460;28;20384;-77
2023/10/18 03:29:43;;;;;;;12.73;8.13;;;;;;;;;;4963254;28;20043;-77
2023/10/18 03:32:14;;;;;;;12.65;7.88;;;;;;;;;;4958784;28;20027;-77
2023/10/18 03:34:41;;;;;;;10.85;7.13;;;;;;;;;;4958673;28;20518;-77
2023/10/18 03:37:08;;;;;;;15.90;7.70;;;;;;;;;;4956323;28;20039;-77
2023/10/18 03:39:33;;;;;;;12.00;7.70;;;;;;;;;;4957354;28;20057;-77
2023/10/18 03:42:00;;;;;;;11.68;7.28;;;;;;;;;;4962632;28;20493;-77
2023/10/18 03:44:28;;;;;;;13.27;8.32;;;;;;;;;;4974060;28;20053;-77
2023/10/18 03:47:03;;;;;;;12.63;7.28;;;;;;;;;;4955673;28;20038;-77
2023/10/18 03:51:57;;;;;;;10.95;7.43;;;;;;;;;;4957132;28;20065;-76
2023/10/18 03:54:27;;;;;;;13.43;8.50;;;;;;;;;;4958566;28;20042;-76
2023/10/18 03:56:53;;;;;;;12.20;7.70;;;;;;;;;;4962134;28;20054;-76
2023/10/18 03:59:22;;;;;;;14.88;8.32;;;;;;;;;;4958588;28;20031;-77
2023/10/18 04:04:37;;;;;;;14.85;8.60;;;;;;;;;;4976339;28;20046;-77
2023/10/18 04:07:13;;;;;;;12.05;8.43;;;;;;;;;;4946891;28;20480;-77
2023/10/18 04:12:29;;;;;;;12.70;8.40;;;;;;;;;;4970934;28;20398;-76
2023/10/18 04:15:03;;;;;;;14.27;8.98;;;;;;;;;;4939320;28;20381;-77
2023/10/18 04:17:38;;;;;;;16.15;9.23;;;;;;;;;;4941749;28;20117;-77
2023/10/18 04:22:46;;;;;;;13.98;9.00;;;;;;;;;;4956682;28;20105;-78
2023/10/18 04:25:25;;;;;;;13.82;8.90;;;;;;;;;;4972146;28;20112;-78
2023/10/18 04:27:52;;;;;;;14.27;9.35;;;;;;;;;;4942586;28;20042;-78
2023/10/18 04:30:17;;;;;;;17.88;9.40;;;;;;;;;;4956181;28;20520;-78
2023/10/18 04:32:53;;;;;;;14.63;9.43;;;;;;;;;;4956940;28;20039;-78
2023/10/18 04:35:25;;;;;;;13.82;9.02;;;;;;;;;;4954214;28;20531;-87
2023/10/18 04:37:51;;;;;;;15.25;9.40;;;;;;;;;;4975060;28;20027;-87
2023/10/18 04:40:22;;;;;;;13.38;8.98;;;;;;;;;;4959743;28;20035;-85
2023/10/18 04:42:49;;;;;;;13.88;9.50;;;;;;;;;;4971851;28;20121;-78
2023/10/18 04:45:18;;;;;;;14.82;9.88;;;;;;;;;;4957484;28;20797;-79
2023/10/18 04:47:49;;;;;;;17.35;10.05;;;;;;;;;;4953801;28;20542;-77
2023/10/18 04:50:18;;;;;;;14.60;9.63;;;;;;;;;;4957887;28;20042;-77
2023/10/18 04:52:47;;;;;;;15.02;9.90;;;;;;;;;;4946427;28;20173;-77
2023/10/18 04:55:14;;;;;;;15.40;10.05;;;;;;;;;;4947218;28;20073;-77
2023/10/18 04:57:40;;;;;;;14.02;9.85;;;;;;;;;;4955188;28;20039;-78
2023/10/18 05:00:24;;;;;;;17.40;10.68;;;;;;;;;;4940465;28;20560;-77
2023/10/18 05:02:51;;;;;;;17.92;9.50;;;;;;;;;;4956363;28;20114;-77
2023/10/18 05:05:17;;;;;;;16.80;10.05;;;;;;;;;;4962507;28;20058;-77
2023/10/18 05:07:47;;;;;;;15.07;10.18;;;;;;;;;;4955646;28;20058;-77
2023/10/18 05:10:18;;;;;;;15.40;9.05;;;;;;;;;;4972977;28;20046;-78
2023/10/18 05:13:07;;;;;;;14.70;9.55;;;;;;;;;;4971264;28;20039;-78
2023/10/18 05:15:32;;;;;;;17.13;10.55;;;;;;;;;;4975629;28;20042;-78
2023/10/18 05:18:15;;;;;;;15.63;10.40;;;;;;;;;;4972371;28;20487;-79
2023/10/18 05:20:47;;;;;;;13.07;9.40;;;;;;;;;;4956962;28;20102;-78
2023/10/18 05:23:25;;;;;;;17.95;9.95;;;;;;;;;;4921734;28;20050;-78
2023/10/18 05:26:03;;;;;;;16.67;9.82;;;;;;;;;;4961325;28;20058;-78
2023/10/18 05:28:42;;;;;;;18.42;10.68;;;;;;;;;;4962051;28;20089;-79
2023/10/18 05:41:35;;;;;;;16.75;10.40;;;;;;;;;;4956678;28;20027;-79
2023/10/18 05:44:00;;;;;;;16.90;10.40;;;;;;;;;;4960729;28;20035;-79
2023/10/18 05:46:33;;;;;;;15.98;10.00;;;;;;;;;;4944127;28;20037;-78
2023/10/18 05:49:04;;;;;;;17.92;10.88;;;;;;;;;;4975410;28;20481;-78
2023/10/18 05:51:32;;;;;;;15.63;10.27;;;;;;;;;;4957876;28;20090;-78
2023/10/18 05:53:59;;;;;;;15.07;10.40;;;;;;;;;;4975747;28;20041;-78
2023/10/18 05:56:29;;;;;;;18.75;10.82;;;;;;;;;;4958958;28;20041;-78
2023/10/18 06:01:41;;;;;;;16.73;10.60;;;;;;;;;;4959895;28;20038;-78
2023/10/18 06:04:06;;;;;;;18.13;11.32;;;;;;;;;;4943598;28;20046;-78
2023/10/18 06:06:37;;;;;;;16.05;10.38;;;;;;;;;;4942979;28;20635;-77
2023/10/18 06:09:11;;;;;;;17.83;10.30;;;;;;;;;;4973421;28;20038;-77
2023/10/18 06:11:38;;;;;;;14.85;10.73;;;;;;;;;;4957517;28;20499;-77
2023/10/18 06:14:07;;;;;;;16.77;11.23;;;;;;;;;;4958162;28;20161;-77
2023/10/18 06:16:34;;;;;;;15.90;10.80;;;;;;;;;;4978839;28;20061;-77
2023/10/18 06:19:01;;;;;;;16.90;10.63;;;;;;;;;;4964530;28;20457;-78
2023/10/18 06:21:28;;;;;;;17.65;10.75;;;;;;;;;;4929732;28;20127;-78
2023/10/18 06:23:56;;;;;;;17.20;10.30;;;;;;;;;;4960514;28;20035;-78
2023/10/18 06:26:28;;;;;;;15.60;10.85;;;;;;;;;;4959205;28;20043;-79
2023/10/18 06:29:01;;;;;;;17.42;10.35;;;;;;;;;;4960621;28;20434;-80
2023/10/18 06:31:30;;;;;;;18.13;10.95;;;;;;;;;;4957381;28;20042;-80
2023/10/18 06:33:57;;;;;;;13.75;10.32;;;;;;;;;;4948381;28;20558;-78
2023/10/18 06:36:24;;;;;;;16.92;10.38;;;;;;;;;;4959710;28;20098;-85
2023/10/18 06:38:56;;;;;;;17.33;11.68;;;;;;;;;;4961161;28;21047;-79
2023/10/18 06:41:21;;;;;;;14.60;9.77;;;;;;;;;;4963997;28;20054;-79
2023/10/18 06:43:52;;;;;;;17.17;10.48;;;;;;;;;;4959460;28;20139;-79
2023/10/18 06:46:49;;;;;;;16.90;10.93;;;;;;;;;;4958008;28;20105;-78
2023/10/18 06:49:26;;;;;;;16.73;9.82;;;;;;;;;;4952082;28;20047;-80
2023/10/18 06:51:52;;;;;;;19.65;10.65;;;;;;;;;;4950399;28;20039;-79
2023/10/18 06:54:30;;;;;;;19.35;10.75;;;;;;;;;;4918736;28;20054;-79
2023/10/18 06:59:58;;;;;;;14.90;10.23;;;;;;;;;;4954363;28;20728;-81
2023/10/18 07:02:32;;;;;;;15.30;10.25;;;;;;;;;;4924874;28;20475;-79
2023/10/18 07:04:58;;;;;;;16.85;10.45;;;;;;;;;;4949029;28;20190;-78
2023/10/18 07:07:23;;;;;;;18.63;10.40;;;;;;;;;;4975052;28;20066;-78
2023/10/18 07:09:53;;;;;;;16.52;10.48;;;;;;;;;;4939959;28;20047;-79
2023/10/18 07:12:27;;;;;;;14.55;10.07;;;;;;;;;;4938223;28;20039;-79
2023/10/18 07:14:56;;;;;;;16.60;9.77;;;;;;;;;;4957554;28;20178;-78
2023/10/18 07:17:24;;;;;;;15.35;9.82;;;;;;;;;;4964346;28;20486;-77
2023/10/18 07:19:50;;;;;;;;;;;;;;;;;;4975686;28;20043;-77
2023/10/18 07:22:19;;;;;;;15.95;10.55;;;;;;;;;;4958673;28;20183;-77
2023/10/18 07:24:47;;;;;;;15.88;10.57;;;;;;;;;;4979776;28;20042;-79
2023/10/18 07:27:16;;;;;;;14.98;9.75;;;;;;;;;;4965109;28;20470;-77
2023/10/18 07:29:49;;;;;;;14.50;9.98;;;;;;;;;;4958977;28;20049;-77
2023/10/18 07:32:20;;;;;;;16.73;10.38;;;;;;;;;;4941119;28;20159;-77
2023/10/18 07:34:56;;;;;;;15.73;9.88;;;;;;;;;;4964472;28;20096;-79
2023/10/18 07:37:31;;;;;;;15.13;10.20;;;;;;;;;;4978117;28;20081;-78
2023/10/18 07:40:09;;;;;;;15.27;10.05;;;;;;;;;;4959529;28;20396;-77
2023/10/18 07:42:35;;;;;;;12.77;9.05;;;;;;;;;;4969285;28;20027;-78
2023/10/18 07:45:08;;;;;;;13.60;8.80;;;;;;;;;;4947455;28;20043;-79
2023/10/18 07:47:37;;;;;;;12.18;8.45;;;;;;;;;;4963400;28;20035;-78
2023/10/18 07:50:34;;;;;;;13.88;7.97;;;;;;;;;;4957970;28;20053;-79
2023/10/18 07:52:49;;;;;;;13.30;7.82;;;;;;;;;;4954238;28;20027;-80
2023/10/18 07:55:15;;;;;;;12.80;8.13;;;;;;;;;;4956899;28;20054;-78
2023/10/18 07:57:46;;;;;;;12.20;7.57;;;;;;;;;;4974552;28;20041;-79
2023/10/18 08:00:21;;;;;;;12.38;7.50;;;;;;;;;;4956812;28;20525;-79
2023/10/18 08:02:49;;;;;;;10.35;7.38;;;;;;;;;;4940249;28;20414;-79
2023/10/18 08:05:30;;;;;;;10.98;7.22;;;;;;;;;;4934674;28;20070;-79
2023/10/18 08:07:57;;;;;;;10.50;7.40;;;;;;;;;;4948894;28;20047;-79
2023/10/18 08:10:23;;;;;;;12.87;8.33;;;;;;;;;;4955615;28;20106;-79
2023/10/18 08:15:50;;;;;;;13.00;7.60;;;;;;;;;;4964620;28;20126;-78
2023/10/18 08:18:16;;;;;;;11.60;7.88;;;;;;;;;;4937179;28;20062;-80
2023/10/18 08:26:20;;;;;;;12.50;7.47;;;;;;;;;;4964212;28;20042;-79
2023/10/18 08:28:40;;;;;;;11.52;8.00;;;;;;;;;;4955858;28;20063;-78
2023/10/18 08:31:32;;;;;;;11.75;8.10;;;;;;;;;;4972775;28;20093;-79
2023/10/18 08:34:15;;;;;;;13.43;7.82;;;;;;;;;;4940994;28;20043;-78
2023/10/18 08:36:50;;;;;;;13.05;7.82;;;;;;;;;;4957688;28;20650;-78
2023/10/18 08:39:25;;;;;;;13.32;7.57;;;;;;;;;;4940865;28;20746;-78
2023/10/18 08:41:59;;;;;;;11.40;7.70;;;;;;;;;;4961564;28;20185;-78
2023/10/18 08:44:25;;;;;;;14.90;8.38;;;;;;;;;;4942212;28;20031;-79
2023/10/18 08:49:50;;;;;;;13.52;8.40;;;;;;;;;;4969880;28;20046;-79
2023/10/18 08:52:30;;;;;;;12.05;8.30;;;;;;;;;;4940560;28;20039;-79
2023/10/18 08:54:56;;;;;;;12.23;7.97;;;;;;;;;;4940277;28;20035;-79
2023/10/18 08:57:35;;;;;;;11.18;7.97;;;;;;;;;;4942000;28;20739;-78
2023/10/18 09:03:03;;;;;;;12.30;7.63;;;;;;;;;;4913416;28;20054;-79
2023/10/18 09:05:28;;;;;;;12.90;8.23;;;;;;;;;;4953885;28;20049;-79
2023/10/18 09:08:03;;;;;;;11.63;7.72;;;;;;;;;;4955756;28;20034;-78
2023/10/18 09:16:11;;;;;;;10.68;7.63;;;;;;;;;;4974686;28;20179;-78
2023/10/18 09:18:38;;;;;;;9.13;6.82;;;;;;;;;;4960555;28;20399;-79
2023/10/18 09:21:17;;;;;;;9.38;6.93;;;;;;;;;;4940064;28;20126;-79
2023/10/18 09:24:00;;;;;;;10.23;7.70;;;;;;;;;;4962270;28;20119;-79
2023/10/18 09:26:28;;;;;;;10.85;7.38;;;;;;;;;;4924554;28;20507;-78
2023/10/18 09:28:56;;;;;;;10.88;6.63;;;;;;;;;;4953027;28;20447;-78
2023/10/18 09:31:24;;;;;;;9.68;6.93;;;;;;;;;;4936994;28;20042;-78
2023/10/18 09:33:51;;;;;;;11.98;6.80;;;;;;;;;;4939816;28;20484;-78
2023/10/18 09:36:29;;;;;;;11.60;6.57;;;;;;;;;;4970298;28;20046;-78
2023/10/18 09:38:55;;;;;;;12.15;6.10;;;;;;;;;;4960063;28;20382;-78
2023/10/18 09:41:21;;;;;;;8.98;6.05;;;;;;;;;;4960136;28;20110;-78
2023/10/18 09:43:47;;;;;;;7.60;5.70;;;;;;;;;;4956596;28;20135;-78
2023/10/18 09:46:19;;;;;;;9.23;6.40;;;;;;;;;;4940229;28;20041;-79
2023/10/18 09:48:46;;;;;;;11.82;6.97;;;;;;;;;;4924110;28;20169;-79
2023/10/18 09:51:21;;;;;;;9.73;6.35;;;;;;;;;;4954948;28;20905;-79
2023/10/18 09:53:54;;;;;;;9.27;6.43;;;;;;;;;;4942306;28;20135;-79
2023/10/18 09:56:24;;;;;;;10.50;6.20;;;;;;;;;;4961717;28;20057;-78
2023/10/18 09:58:51;;;;;;;9.40;6.00;;;;;;;;;;4947146;28;20387;-78
2023/10/18 10:04:03;;;;;;;8.05;5.47;;;;;;;;;;4960165;28;20179;-79
2023/10/18 10:06:33;;;;;;;8.90;5.97;;;;;;;;;;4954970;28;20046;-79
2023/10/18 10:11:37;;;;;;;9.55;5.75;;;;;;;;;;4956470;28;20050;-78
2023/10/18 10:14:07;;;;;;;8.68;5.93;;;;;;;;;;4945511;28;20046;-78
2023/10/18 10:16:34;;;;;;;9.95;6.00;;;;;;;;;;4956416;28;20058;-78
2023/10/18 10:19:04;;;;;;;9.07;5.72;;;;;;;;;;4939971;28;20384;-78
2023/10/18 10:21:33;;;;;;;9.63;5.30;;;;;;;;;;4961110;28;20037;-78
2023/10/18 10:24:06;;;;;;;9.90;5.20;;;;;;;;;;4945641;28;20051;-78
2023/10/18 10:26:35;;;;;;;7.18;4.70;;;;;;;;;;4941092;28;20062;-78
2023/10/18 10:31:55;;;;;;;7.22;4.70;;;;;;;;;;4977217;28;20483;-78
2023/10/18 10:34:34;;;;;;;7.45;4.13;;;;;;;;;;4959099;28;20490;-77
2023/10/18 10:37:07;;;;;;;7.45;4.30;;;;;;;;;;4957209;28;20073;-77
2023/10/18 10:39:35;;;;;;;8.48;4.43;;;;;;;;;;4959681;28;20963;-78
2023/10/18 10:42:08;;;;;;;7.43;4.22;;;;;;;;;;4944366;28;20039;-78
2023/10/18 10:51:13;;;;;;;5.53;3.47;;;;;;;;;;4960138;28;20050;-80
2023/10/18 10:53:44;;;;;;;6.00;3.70;;;;;;;;;;4964168;28;20054;-78
2023/10/18 10:56:30;;;;;;;6.47;3.72;;;;;;;;;;4961056;28;20618;-79
2023/10/18 11:04:25;;;;;;;6.53;3.45;;;;;;;;;;4959073;28;20967;-78
2023/10/18 11:06:57;;;;;;;7.30;3.25;;;;;;;;;;4964090;28;20399;-78
2023/10/18 11:09:32;;;;;;;6.97;3.00;;;;;;;;;;4974947;28;20614;-78
2023/10/18 11:12:04;;;;;;;4.88;2.97;;;;;;;;;;4978407;28;20035;-79
2023/10/18 11:14:31;;;;;;;4.97;2.70;;;;;;;;;;4974328;28;20039;-79
2023/10/18 11:17:17;;;;;;;4.10;2.35;;;;;;;;;;4963721;28;20034;-79
2023/10/18 11:19:43;;;;;;;4.25;2.38;;;;;;;;;;4963473;28;20027;-79
2023/10/18 11:22:19;;;;;;;5.85;2.53;;;;;;;;;;4957450;28;21496;-79
2023/10/18 11:24:49;;;;;;;5.65;2.35;;;;;;;;;;4957838;28;20689;-79
2023/10/18 11:27:17;;;;;;;5.10;2.28;;;;;;;;;;4963617;28;20061;-78
2023/10/18 11:29:43;;;;;;;3.88;2.00;;;;;;;;;;4972608;28;20567;-78
2023/10/18 11:35:09;;;;;;;3.67;1.83;;;;;;;;;;4948478;28;20131;-78
2023/10/18 11:37:37;;;;;;;4.00;2.00;;;;;;;;;;4941706;28;20059;-78
2023/10/18 11:40:18;;;;;;;4.63;2.63;;;;;;;;;;4947124;28;20678;-79
2023/10/18 11:43:06;;;;;;;4.28;2.20;;;;;;;;;;4973460;28;20042;-79
2023/10/18 11:45:33;;;;;;;4.65;2.30;;;;;;;;;;4940873;28;20037;-78
2023/10/18 11:48:06;;;;;;;5.07;2.40;;;;;;;;;;4935160;28;20419;-78
2023/10/18 11:50:48;;;;;;;4.07;2.15;;;;;;;;;;4949401;28;20398;-78
2023/10/18 11:53:15;;;;;;;3.92;2.17;;;;;;;;;;4959642;28;20101;-78
2023/10/18 11:55:59;;;;;;;;;;;;;;;;;;4962559;28;20039;-79
2023/10/18 11:58:29;;;;;;;6.03;2.25;;;;;;;;;;4963937;28;19929;-79
2023/10/18 12:01:05;;;;;;;5.72;2.90;;;;;;;;;;4941109;28;20440;-79
2023/10/18 12:03:35;;;;;;;4.00;2.40;;;;;;;;;;4957052;28;20134;-78
2023/10/18 12:06:02;;;;;;;5.00;2.50;;;;;;;;;;4973381;28;20051;-78
2023/10/18 12:08:30;;;;;;;5.93;3.05;;;;;;;;;;4973383;28;20175;-78
2023/10/18 12:11:07;;;;;;;4.93;3.00;;;;;;;;;;4958470;28;20054;-78
2023/10/18 12:13:33;;;;;;;6.32;3.70;;;;;;;;;;4962769;28;20035;-78
2023/10/18 12:16:00;;;;;;;5.65;3.60;;;;;;;;;;4972643;28;20039;-79
2023/10/18 12:18:27;;;;;;;9.68;3.72;;;;;;;;;;4956768;28;20101;-78
2023/10/18 12:20:54;;;;;;;6.43;3.30;;;;;;;;;;4947230;28;20037;-78
2023/10/18 12:23:19;;;;;;;7.05;3.60;;;;;;;;;;4957306;28;20157;-79
2023/10/18 12:25:46;;;;;;;5.55;3.70;;;;;;;;;;4971486;28;20554;-79
2023/10/18 12:28:18;;;;;;;6.97;3.95;;;;;;;;;;4945886;28;20050;-79
2023/10/18 12:30:51;;;;;;;6.28;4.13;;;;;;;;;;4947233;28;20053;-78
2023/10/18 12:33:40;;;;;;;7.28;3.53;;;;;;;;;;4942345;28;20523;-78
2023/10/18 12:36:07;;;;;;;6.22;4.22;;;;;;;;;;4914800;29;20075;-79
2023/10/18 12:38:34;;;;;;;8.82;4.45;;;;;;;;;;4907426;29;20593;-79
2023/10/18 12:41:19;;;;;;;6.50;4.33;;;;;;;;;;4924560;29;20052;-78
2023/10/18 12:43:44;;;;;;;8.45;4.55;;;;;;;;;;4921305;29;20076;-78
2023/10/18 12:46:15;;;;;;;8.77;4.97;;;;;;;;;;4898191;29;20460;-78
2023/10/18 12:48:43;;;;;;;6.30;4.55;;;;;;;;;;4908293;29;20522;-78
2023/10/18 12:51:12;;;;;;;8.05;4.40;;;;;;;;;;4898531;29;20530;-77
2023/10/18 12:53:41;;;;;;;8.32;4.38;;;;;;;;;;4922702;29;20384;-77
2023/10/18 13:01:42;;;;;;;7.32;4.43;;;;;;;;;;4924598;29;20036;-76
2023/10/18 13:04:17;;;;;;;8.18;4.15;;;;;;;;;;4923985;29;20051;-76
2023/10/18 13:06:46;;;;;;;7.50;4.63;;;;;;;;;;4909845;29;20047;-77
2023/10/18 13:14:05;;;;;;;6.65;4.00;;;;;;;;;;4953261;28;20042;-79
2023/10/18 13:16:34;;;;;;;7.70;3.97;;;;;;;;;;4953913;28;20450;-77
2023/10/18 13:19:00;;;;;;;6.38;4.13;;;;;;;;;;4972197;28;20101;-78
2023/10/18 13:21:27;;;;;;;6.03;3.90;;;;;;;;;;4954914;28;20034;-77
2023/10/18 13:24:16;;;;;;;7.55;3.78;;;;;;;;;;4972936;28;20034;-78
2023/10/18 13:26:43;;;;;;;7.05;3.53;;;;;;;;;;4963983;28;20110;-78
2023/10/18 13:29:16;;;;;;;6.53;3.25;;;;;;;;;;4956389;28;20499;-77
2023/10/18 13:31:44;;;;;;;6.53;3.42;;;;;;;;;;4939830;28;20475;-77
2023/10/18 13:34:18;;;;;;;5.20;3.10;;;;;;;;;;4940124;28;20182;-77
2023/10/18 13:36:51;;;;;;;9.30;3.50;;;;;;;;;;4956265;28;20039;-77
2023/10/18 13:39:18;;;;;;;5.72;2.97;;;;;;;;;;4960604;28;20388;-77
2023/10/18 13:41:47;;;;;;;6.25;2.95;;;;;;;;;;4975403;28;20576;-77
2023/10/18 13:44:19;;;;;;;5.90;2.80;;;;;;;;;;4961861;28;20431;-77
2023/10/18 13:46:52;;;;;;;4.63;3.10;;;;;;;;;;4946511;28;20064;-77
2023/10/18 13:49:18;;;;;;;5.50;3.10;;;;;;;;;;4955219;28;20585;-77
2023/10/18 13:51:46;;;;;;;5.43;3.33;;;;;;;;;;4955535;28;20455;-77
2023/10/18 13:54:12;;;;;;;8.35;3.40;;;;;;;;;;4939695;28;20027;-76
2023/10/18 13:56:38;;;;;;;6.72;3.75;;;;;;;;;;4947917;28;20089;-77
2023/10/18 13:59:04;;;;;;;6.38;3.47;;;;;;;;;;4956750;28;20043;-77
2023/10/18 14:01:31;;;;;;;7.20;3.65;;;;;;;;;;4954723;28;20035;-78
2023/10/18 14:04:01;;;;;;;6.85;3.58;;;;;;;;;;4957047;28;20090;-77
2023/10/18 14:06:29;;;;;;;5.85;3.20;;;;;;;;;;4943335;28;20507;-77
2023/10/18 14:08:55;;;;;;;9.02;3.53;;;;;;;;;;4965127;28;20039;-77
2023/10/18 14:11:20;;;;;;;5.65;3.13;;;;;;;;;;4974798;28;20062;-77
2023/10/18 14:13:48;;;;;;;6.07;3.28;;;;;;;;;;4959269;28;20418;-77
2023/10/18 14:16:17;;;;;;;7.13;3.45;;;;;;;;;;4963486;28;20488;-77
2023/10/18 14:18:46;;;;;;;6.53;3.38;;;;;;;;;;4965803;28;20050;-77
2023/10/18 14:21:15;;;;;;;5.70;3.40;;;;;;;;;;4948291;28;20671;-77
2023/10/18 14:23:47;;;;;;;8.30;3.70;;;;;;;;;;4965722;28;20049;-77
2023/10/18 14:26:15;;;;;;;5.82;3.50;;;;;;;;;;4964712;28;20057;-77
2023/10/18 14:28:41;;;;;;;;;;;;;;;;;;4974938;28;20256;-78
2023/10/18 14:31:14;;;;;;;6.10;3.40;;;;;;;;;;4976834;28;20473;-77
2023/10/18 14:33:40;;;;;;;7.78;3.70;;;;;;;;;;4943497;28;20047;-75
2023/10/18 14:36:13;;;;;;;6.15;3.33;;;;;;;;;;4957474;28;20531;-77
2023/10/18 14:38:39;;;;;;;6.63;3.95;;;;;;;;;;4951261;28;20502;-76
2023/10/18 14:41:13;;;;;;;8.30;4.07;;;;;;;;;;4963869;28;20089;-77
2023/10/18 14:43:40;;;;;;;7.32;4.10;;;;;;;;;;4960954;28;20039;-77
2023/10/18 14:46:06;;;;;;;6.63;3.83;;;;;;;;;;4940369;28;20380;-77
2023/10/18 14:48:32;;;;;;;7.03;3.72;;;;;;;;;;4947461;28;20041;-76
2023/10/18 14:50:58;;;;;;;6.53;3.70;;;;;;;;;;4957226;28;20711;-77
2023/10/18 14:53:24;;;;;;;5.72;3.03;;;;;;;;;;4941678;28;20035;-78
2023/10/18 14:55:50;;;;;;;6.60;3.70;;;;;;;;;;4942258;28;20042;-78
2023/10/18 14:58:15;;;;;;;7.45;4.07;;;;;;;;;;4973506;28;20027;-78
2023/10/18 15:00:43;;;;;;;6.63;3.70;;;;;;;;;;4980278;28;20039;-78
2023/10/18 15:03:10;;;;;;;;;;;;;;;;;;4943201;28;20519;-79
2023/10/18 15:05:37;;;;;;;;;;;;;;;;;;4975604;28;19918;-79
2023/10/18 15:08:05;;;;;;;6.75;4.43;;;;;;;;;;4974214;28;20851;-78
2023/10/18 15:10:31;;;;;;;7.20;4.20;;;;;;;;;;4963107;28;20039;-79
2023/10/18 15:12:56;;;;;;;8.35;4.18;;;;;;;;;;4974998;28;20042;-78
2023/10/18 15:15:23;;;;;;;7.47;4.25;;;;;;;;;;4956994;28;20039;-78
2023/10/18 15:17:49;;;;;;;6.07;4.20;;;;;;;;;;4965319;28;20117;-79
2023/10/18 15:20:16;;;;;;;7.15;4.10;;;;;;;;;;4974848;28;20041;-79
2023/10/18 15:22:41;;;;;;;9.00;5.60;;;;;;;;;;4949029;28;21049;-78
2023/10/18 15:25:09;;;;;;;8.23;4.45;;;;;;;;;;4957894;28;20043;-78
2023/10/18 15:27:34;;;;;;;7.70;4.78;;;;;;;;;;4959797;28;20057;-78
2023/10/18 15:30:06;;;;;;;8.15;4.30;;;;;;;;;;4957160;28;20106;-79
2023/10/18 15:32:32;;;;;;;8.60;4.13;;;;;;;;;;4958742;28;20487;-79
2023/10/18 15:34:58;;;;;;;7.18;4.20;;;;;;;;;;4957451;28;20047;-76
2023/10/18 15:37:25;;;;;;;7.05;4.25;;;;;;;;;;4958645;28;20097;-79
2023/10/18 15:39:50;;;;;;;8.27;4.60;;;;;;;;;;4964151;28;20038;-77
2023/10/18 15:42:17;;;;;;;7.63;4.18;;;;;;;;;;4958127;28;20118;-77
2023/10/18 15:44:43;;;;;;;7.57;4.63;;;;;;;;;;4958365;28;20043;-77
2023/10/18 15:47:08;;;;;;;7.60;4.68;;;;;;;;;;4948472;28;20256;-78
2023/10/18 15:49:34;;;;;;;9.60;4.68;;;;;;;;;;4977154;28;20050;-78
2023/10/18 15:52:01;;;;;;;7.03;4.68;;;;;;;;;;4973717;28;20498;-79
2023/10/18 15:54:26;;;;;;;9.90;4.65;;;;;;;;;;4956249;28;20403;-79
2023/10/18 15:56:52;;;;;;;8.15;4.60;;;;;;;;;;4973191;28;20031;-78
2023/10/18 15:59:18;;;;;;;8.23;4.57;;;;;;;;;;4958218;28;20031;-79
2023/10/18 16:01:44;;;;;;;6.72;4.15;;;;;;;;;;4963016;28;20542;-79
2023/10/18 16:04:10;;;;;;;7.05;4.57;;;;;;;;;;4959359;28;20100;-79
2023/10/18 16:06:39;;;;;;;6.57;4.35;;;;;;;;;;4948044;28;20944;-79
2023/10/18 16:09:09;;;;;;;8.73;4.38;;;;;;;;;;4956774;28;20043;-79
2023/10/18 16:11:36;;;;;;;7.93;4.30;;;;;;;;;;4976634;28;20053;-80
2023/10/18 16:14:03;;;;;;;10.52;4.90;;;;;;;;;;4956996;28;20054;-79
2023/10/18 16:16:29;;;;;;;8.40;4.30;;;;;;;;;;4956692;28;20043;-79
2023/10/18 16:18:57;;;;;;;7.95;4.57;;;;;;;;;;4947301;28;20069;-80